sensor_id;sensor_type;location;lat;lon;timestamp;temperature;humidity
23251;DHT22;11794;49.730;10.088;2022-10-13T00:00:48;9.30;99.90
23251;DHT22;11794;49.730;10.088;2022-10-13T00:03:14;9.30;99.90
23251;DHT22;11794;49.730;10.088;2022-10-13T00:05:44;9.30;99.90
23251;DHT22;11794;49.730;10.088;2022-10-13T00:08:11;9.30;99.90
23251;DHT22;11794;49.730;10.088;2022-10-13T00:10:38;9.30;99.90
23251;DHT22;11794;49.730;10.088;2022-10-13T00:13:05;9.30;99.90
23251;DHT22;11794;49.730;10.088;2022-10-13T00:15:31;9.40;99.90
23251;DHT22;11794;49.730;10.088;2022-10-13T00:17:56;9.40;99.90
23251;DHT22;11794;49.730;10.088;2022-10-13T00:20:22;9.50;99.90
23251;DHT22;11794;49.730;10.088;2022-10-13T00:22:47;9.60;99.90
23251;DHT22;11794;49.730;10.088;2022-10-13T00:25:13;9.60;99.90
23251;DHT22;11794;49.730;10.088;2022-10-13T00:27:39;9.70;99.90
23251;DHT22;11794;49.730;10.088;2022-10-13T00:30:05;9.70;99.90
23251;DHT22;11794;49.730;10.088;2022-10-13T00:32:30;9.80;99.90
23251;DHT22;11794;49.730;10.088;2022-10-13T00:34:56;9.90;99.90
23251;DHT22;11794;49.730;10.088;2022-10-13T00:37:22;10.00;99.90
23251;DHT22;11794;49.730;10.088;2022-10-13T00:39:48;10.00;99.90
23251;DHT22;11794;49.730;10.088;2022-10-13T00:42:14;10.00;99.90
23251;DHT22;11794;49.730;10.088;2022-10-13T00:44:58;10.10;99.90
23251;DHT22;11794;49.730;10.088;2022-10-13T00:47:37;10.00;99.90
23251;DHT22;11794;49.730;10.088;2022-10-13T00:50:06;10.00;99.90
23251;DHT22;11794;49.730;10.088;2022-10-13T00:52:33;10.00;99.90
23251;DHT22;11794;49.730;10.088;2022-10-13T00:54:59;9.90;99.90
23251;DHT22;11794;49.730;10.088;2022-10-13T00:57:27;9.90;99.90
23251;DHT22;11794;49.730;10.088;2022-10-13T00:59:52;9.90;99.90
23251;DHT22;11794;49.730;10.088;2022-10-13T01:02:19;9.90;99.90
23251;DHT22;11794;49.730;10.088;2022-10-13T01:04:46;9.80;99.90
23251;DHT22;11794;49.730;10.088;2022-10-13T01:07:14;9.80;99.90
23251;DHT22;11794;49.730;10.088;2022-10-13T01:09:40;9.80;99.90
23251;DHT22;11794;49.730;10.088;2022-10-13T01:12:19;9.70;99.90
23251;DHT22;11794;49.730;10.088;2022-10-13T01:17:29;9.60;99.90
23251;DHT22;11794;49.730;10.088;2022-10-13T01:23:11;9.50;99.90
23251;DHT22;11794;49.730;10.088;2022-10-13T01:34:33;9.50;99.90
23251;DHT22;11794;49.730;10.088;2022-10-13T01:45:19;9.50;99.90
23251;DHT22;11794;49.730;10.088;2022-10-13T01:47:47;9.40;99.90
23251;DHT22;11794;49.730;10.088;2022-10-13T01:50:16;9.50;99.90
23251;DHT22;11794;49.730;10.088;2022-10-13T01:52:44;9.50;99.90
23251;DHT22;11794;49.730;10.088;2022-10-13T01:55:11;9.50;99.90
23251;DHT22;11794;49.730;10.088;2022-10-13T01:57:38;9.50;99.90
23251;DHT22;11794;49.730;10.088;2022-10-13T02:00:09;9.50;99.90
23251;DHT22;11794;49.730;10.088;2022-10-13T02:02:58;9.40;99.90
23251;DHT22;11794;49.730;10.088;2022-10-13T02:05:48;9.30;99.90
23251;DHT22;11794;49.730;10.088;2022-10-13T02:08:35;9.20;99.90
23251;DHT22;11794;49.730;10.088;2022-10-13T02:11:15;9.20;99.90
23251;DHT22;11794;49.730;10.088;2022-10-13T02:13:51;9.30;99.90
23251;DHT22;11794;49.730;10.088;2022-10-13T02:16:19;9.30;99.90
23251;DHT22;11794;49.730;10.088;2022-10-13T02:18:48;9.20;99.90
23251;DHT22;11794;49.730;10.088;2022-10-13T02:21:15;9.20;99.90
23251;DHT22;11794;49.730;10.088;2022-10-13T02:23:42;9.20;99.90
23251;DHT22;11794;49.730;10.088;2022-10-13T02:26:08;9.20;99.90
23251;DHT22;11794;49.730;10.088;2022-10-13T02:28:36;9.10;99.90
23251;DHT22;11794;49.730;10.088;2022-10-13T02:31:01;9.10;99.90
23251;DHT22;11794;49.730;10.088;2022-10-13T02:33:27;9.10;99.90
23251;DHT22;11794;49.730;10.088;2022-10-13T02:35:53;9.20;99.90
23251;DHT22;11794;49.730;10.088;2022-10-13T02:38:18;9.20;99.90
23251;DHT22;11794;49.730;10.088;2022-10-13T02:40:44;9.20;99.90
23251;DHT22;11794;49.730;10.088;2022-10-13T02:43:10;9.30;99.90
23251;DHT22;11794;49.730;10.088;2022-10-13T02:45:35;9.40;99.90
23251;DHT22;11794;49.730;10.088;2022-10-13T02:48:01;9.40;99.90
23251;DHT22;11794;49.730;10.088;2022-10-13T02:50:27;9.50;99.90
23251;DHT22;11794;49.730;10.088;2022-10-13T02:52:52;9.60;99.90
23251;DHT22;11794;49.730;10.088;2022-10-13T02:55:18;9.50;99.90
23251;DHT22;11794;49.730;10.088;2022-10-13T02:57:43;9.60;99.90
23251;DHT22;11794;49.730;10.088;2022-10-13T03:00:09;9.60;99.90
23251;DHT22;11794;49.730;10.088;2022-10-13T03:02:35;9.60;99.90
23251;DHT22;11794;49.730;10.088;2022-10-13T03:05:00;9.70;99.90
23251;DHT22;11794;49.730;10.088;2022-10-13T03:07:26;9.70;99.90
23251;DHT22;11794;49.730;10.088;2022-10-13T03:09:51;9.80;99.90
23251;DHT22;11794;49.730;10.088;2022-10-13T03:12:17;9.80;99.90
23251;DHT22;11794;49.730;10.088;2022-10-13T03:14:42;9.80;99.90
23251;DHT22;11794;49.730;10.088;2022-10-13T03:17:08;9.80;99.90
23251;DHT22;11794;49.730;10.088;2022-10-13T03:19:34;9.90;99.90
23251;DHT22;11794;49.730;10.088;2022-10-13T03:21:59;9.90;99.90
23251;DHT22;11794;49.730;10.088;2022-10-13T03:24:24;9.90;99.90
23251;DHT22;11794;49.730;10.088;2022-10-13T03:26:50;9.80;99.90
23251;DHT22;11794;49.730;10.088;2022-10-13T03:29:16;9.80;99.90
23251;DHT22;11794;49.730;10.088;2022-10-13T03:31:42;9.70;99.90
23251;DHT22;11794;49.730;10.088;2022-10-13T03:34:09;9.70;99.90
23251;DHT22;11794;49.730;10.088;2022-10-13T03:36:35;9.70;99.90
23251;DHT22;11794;49.730;10.088;2022-10-13T03:39:01;9.70;99.90
23251;DHT22;11794;49.730;10.088;2022-10-13T03:41:26;9.70;99.90
23251;DHT22;11794;49.730;10.088;2022-10-13T03:43:52;9.60;99.90
23251;DHT22;11794;49.730;10.088;2022-10-13T03:46:18;9.60;99.90
23251;DHT22;11794;49.730;10.088;2022-10-13T03:48:44;9.60;99.90
23251;DHT22;11794;49.730;10.088;2022-10-13T03:51:14;9.60;99.90
23251;DHT22;11794;49.730;10.088;2022-10-13T03:53:39;9.50;99.90
23251;DHT22;11794;49.730;10.088;2022-10-13T03:56:05;9.50;99.90
23251;DHT22;11794;49.730;10.088;2022-10-13T03:58:33;9.50;99.90
23251;DHT22;11794;49.730;10.088;2022-10-13T04:01:03;9.50;99.90
23251;DHT22;11794;49.730;10.088;2022-10-13T04:03:30;9.50;99.90
23251;DHT22;11794;49.730;10.088;2022-10-13T04:05:59;9.50;99.90
23251;DHT22;11794;49.730;10.088;2022-10-13T04:08:26;9.60;99.90
23251;DHT22;11794;49.730;10.088;2022-10-13T04:11:06;9.70;99.90
23251;DHT22;11794;49.730;10.088;2022-10-13T04:13:33;9.70;99.90
23251;DHT22;11794;49.730;10.088;2022-10-13T04:16:03;9.70;99.90
23251;DHT22;11794;49.730;10.088;2022-10-13T04:18:28;9.60;99.90
23251;DHT22;11794;49.730;10.088;2022-10-13T04:20:54;9.60;99.90
23251;DHT22;11794;49.730;10.088;2022-10-13T04:23:19;9.50;99.90
23251;DHT22;11794;49.730;10.088;2022-10-13T04:25:45;9.50;99.90
23251;DHT22;11794;49.730;10.088;2022-10-13T04:28:11;9.40;99.90
23251;DHT22;11794;49.730;10.088;2022-10-13T04:30:37;9.40;99.90
23251;DHT22;11794;49.730;10.088;2022-10-13T04:33:02;9.40;99.90
23251;DHT22;11794;49.730;10.088;2022-10-13T04:35:28;9.30;99.90
23251;DHT22;11794;49.730;10.088;2022-10-13T04:37:53;9.40;99.90
23251;DHT22;11794;49.730;10.088;2022-10-13T04:40:21;9.40;99.90
23251;DHT22;11794;49.730;10.088;2022-10-13T04:42:47;9.40;99.90
23251;DHT22;11794;49.730;10.088;2022-10-13T04:45:12;9.40;99.90
23251;DHT22;11794;49.730;10.088;2022-10-13T04:47:38;9.40;99.90
23251;DHT22;11794;49.730;10.088;2022-10-13T04:50:04;9.40;99.90
23251;DHT22;11794;49.730;10.088;2022-10-13T04:52:30;9.50;99.90
23251;DHT22;11794;49.730;10.088;2022-10-13T04:54:55;9.40;99.90
23251;DHT22;11794;49.730;10.088;2022-10-13T04:57:21;9.50;99.90
23251;DHT22;11794;49.730;10.088;2022-10-13T04:59:46;9.50;99.90
23251;DHT22;11794;49.730;10.088;2022-10-13T05:02:12;9.50;99.90
23251;DHT22;11794;49.730;10.088;2022-10-13T05:04:37;9.50;99.90
23251;DHT22;11794;49.730;10.088;2022-10-13T05:07:03;9.40;99.90
23251;DHT22;11794;49.730;10.088;2022-10-13T05:09:28;9.40;99.90
23251;DHT22;11794;49.730;10.088;2022-10-13T05:11:54;9.40;99.90
23251;DHT22;11794;49.730;10.088;2022-10-13T05:14:21;9.40;99.90
23251;DHT22;11794;49.730;10.088;2022-10-13T05:16:46;9.40;99.90
23251;DHT22;11794;49.730;10.088;2022-10-13T05:19:12;9.40;99.90
23251;DHT22;11794;49.730;10.088;2022-10-13T05:21:38;9.40;99.90
23251;DHT22;11794;49.730;10.088;2022-10-13T05:24:04;9.50;99.90
23251;DHT22;11794;49.730;10.088;2022-10-13T05:26:30;9.60;99.90
23251;DHT22;11794;49.730;10.088;2022-10-13T05:28:58;9.60;99.90
23251;DHT22;11794;49.730;10.088;2022-10-13T05:31:26;9.70;99.90
23251;DHT22;11794;49.730;10.088;2022-10-13T05:33:52;9.80;99.90
23251;DHT22;11794;49.730;10.088;2022-10-13T05:36:22;9.80;99.90
23251;DHT22;11794;49.730;10.088;2022-10-13T05:38:50;9.90;99.90
23251;DHT22;11794;49.730;10.088;2022-10-13T05:41:16;9.90;99.90
23251;DHT22;11794;49.730;10.088;2022-10-13T05:43:42;9.90;99.90
23251;DHT22;11794;49.730;10.088;2022-10-13T05:46:08;10.00;99.90
23251;DHT22;11794;49.730;10.088;2022-10-13T05:48:35;10.10;99.90
23251;DHT22;11794;49.730;10.088;2022-10-13T05:51:03;10.10;99.90
23251;DHT22;11794;49.730;10.088;2022-10-13T05:53:33;10.20;99.90
23251;DHT22;11794;49.730;10.088;2022-10-13T05:56:04;10.20;99.90
23251;DHT22;11794;49.730;10.088;2022-10-13T05:58:35;10.30;99.90
23251;DHT22;11794;49.730;10.088;2022-10-13T06:01:04;10.40;99.90
23251;DHT22;11794;49.730;10.088;2022-10-13T06:03:31;10.40;99.90
23251;DHT22;11794;49.730;10.088;2022-10-13T06:05:56;10.40;99.90
23251;DHT22;11794;49.730;10.088;2022-10-13T06:08:22;10.50;99.90
23251;DHT22;11794;49.730;10.088;2022-10-13T06:10:48;10.70;99.90
23251;DHT22;11794;49.730;10.088;2022-10-13T06:13:13;10.80;99.90
23251;DHT22;11794;49.730;10.088;2022-10-13T06:15:39;10.80;99.90
23251;DHT22;11794;49.730;10.088;2022-10-13T06:18:08;10.90;99.90
23251;DHT22;11794;49.730;10.088;2022-10-13T06:20:35;10.90;99.90
23251;DHT22;11794;49.730;10.088;2022-10-13T06:23:00;10.90;99.90
23251;DHT22;11794;49.730;10.088;2022-10-13T06:25:26;11.00;99.90
23251;DHT22;11794;49.730;10.088;2022-10-13T06:27:54;11.00;99.90
23251;DHT22;11794;49.730;10.088;2022-10-13T06:30:20;11.00;99.90
23251;DHT22;11794;49.730;10.088;2022-10-13T06:32:45;11.00;99.90
23251;DHT22;11794;49.730;10.088;2022-10-13T06:35:11;11.00;99.90
23251;DHT22;11794;49.730;10.088;2022-10-13T06:37:36;11.10;99.90
23251;DHT22;11794;49.730;10.088;2022-10-13T06:40:02;11.10;99.90
23251;DHT22;11794;49.730;10.088;2022-10-13T06:42:27;11.10;99.90
23251;DHT22;11794;49.730;10.088;2022-10-13T06:44:56;11.10;99.90
23251;DHT22;11794;49.730;10.088;2022-10-13T06:47:21;11.20;99.90
23251;DHT22;11794;49.730;10.088;2022-10-13T06:49:47;11.30;99.90
23251;DHT22;11794;49.730;10.088;2022-10-13T06:52:12;11.30;99.90
23251;DHT22;11794;49.730;10.088;2022-10-13T06:54:38;11.30;99.90
23251;DHT22;11794;49.730;10.088;2022-10-13T06:57:06;11.30;99.90
23251;DHT22;11794;49.730;10.088;2022-10-13T06:59:32;11.40;99.90
23251;DHT22;11794;49.730;10.088;2022-10-13T07:01:58;11.50;99.90
23251;DHT22;11794;49.730;10.088;2022-10-13T07:04:24;11.50;99.90
23251;DHT22;11794;49.730;10.088;2022-10-13T07:06:50;11.50;99.90
23251;DHT22;11794;49.730;10.088;2022-10-13T07:09:16;11.60;99.90
23251;DHT22;11794;49.730;10.088;2022-10-13T07:11:44;11.60;99.90
23251;DHT22;11794;49.730;10.088;2022-10-13T07:14:11;11.70;99.90
23251;DHT22;11794;49.730;10.088;2022-10-13T07:16:36;11.70;99.90
23251;DHT22;11794;49.730;10.088;2022-10-13T07:19:02;11.70;99.90
23251;DHT22;11794;49.730;10.088;2022-10-13T07:21:27;11.70;99.90
23251;DHT22;11794;49.730;10.088;2022-10-13T07:23:53;11.80;99.90
23251;DHT22;11794;49.730;10.088;2022-10-13T07:26:18;11.80;99.90
23251;DHT22;11794;49.730;10.088;2022-10-13T07:28:44;11.70;99.90
23251;DHT22;11794;49.730;10.088;2022-10-13T07:31:12;11.50;99.90
23251;DHT22;11794;49.730;10.088;2022-10-13T07:33:39;11.50;99.90
23251;DHT22;11794;49.730;10.088;2022-10-13T07:36:06;11.50;99.90
23251;DHT22;11794;49.730;10.088;2022-10-13T07:38:31;11.60;99.90
23251;DHT22;11794;49.730;10.088;2022-10-13T07:41:01;11.50;99.90
23251;DHT22;11794;49.730;10.088;2022-10-13T07:43:28;11.50;99.90
23251;DHT22;11794;49.730;10.088;2022-10-13T07:45:53;11.60;99.90
23251;DHT22;11794;49.730;10.088;2022-10-13T07:48:19;11.70;99.90
23251;DHT22;11794;49.730;10.088;2022-10-13T07:50:44;11.80;99.90
23251;DHT22;11794;49.730;10.088;2022-10-13T07:53:10;11.80;99.90
23251;DHT22;11794;49.730;10.088;2022-10-13T07:55:36;11.80;99.90
23251;DHT22;11794;49.730;10.088;2022-10-13T07:58:02;12.00;99.90
23251;DHT22;11794;49.730;10.088;2022-10-13T08:00:28;12.20;99.90
23251;DHT22;11794;49.730;10.088;2022-10-13T08:02:53;12.10;99.90
23251;DHT22;11794;49.730;10.088;2022-10-13T08:05:19;12.20;99.90
23251;DHT22;11794;49.730;10.088;2022-10-13T08:07:44;12.20;99.90
23251;DHT22;11794;49.730;10.088;2022-10-13T08:10:10;12.10;99.90
23251;DHT22;11794;49.730;10.088;2022-10-13T08:12:36;12.10;99.90
23251;DHT22;11794;49.730;10.088;2022-10-13T08:15:03;11.90;99.90
23251;DHT22;11794;49.730;10.088;2022-10-13T08:17:29;12.00;99.90
23251;DHT22;11794;49.730;10.088;2022-10-13T08:19:55;12.00;99.90
23251;DHT22;11794;49.730;10.088;2022-10-13T08:22:20;12.10;99.90
23251;DHT22;11794;49.730;10.088;2022-10-13T08:24:46;12.20;99.90
23251;DHT22;11794;49.730;10.088;2022-10-13T08:27:17;12.20;99.90
23251;DHT22;11794;49.730;10.088;2022-10-13T08:29:43;12.20;99.90
23251;DHT22;11794;49.730;10.088;2022-10-13T08:32:09;12.20;99.90
23251;DHT22;11794;49.730;10.088;2022-10-13T08:34:34;12.30;99.90
23251;DHT22;11794;49.730;10.088;2022-10-13T08:37:01;12.40;99.90
23251;DHT22;11794;49.730;10.088;2022-10-13T08:39:27;12.60;99.90
23251;DHT22;11794;49.730;10.088;2022-10-13T08:41:54;12.70;99.90
23251;DHT22;11794;49.730;10.088;2022-10-13T08:44:31;12.70;99.90
23251;DHT22;11794;49.730;10.088;2022-10-13T08:47:14;12.70;99.90
23251;DHT22;11794;49.730;10.088;2022-10-13T08:49:42;12.60;99.90
23251;DHT22;11794;49.730;10.088;2022-10-13T08:52:17;12.70;99.90
23251;DHT22;11794;49.730;10.088;2022-10-13T08:54:43;12.80;99.90
23251;DHT22;11794;49.730;10.088;2022-10-13T08:57:10;13.10;99.90
23251;DHT22;11794;49.730;10.088;2022-10-13T08:59:35;13.20;99.90
23251;DHT22;11794;49.730;10.088;2022-10-13T09:02:04;13.50;99.90
23251;DHT22;11794;49.730;10.088;2022-10-13T09:04:35;13.50;99.90
23251;DHT22;11794;49.730;10.088;2022-10-13T09:07:04;13.70;99.90
23251;DHT22;11794;49.730;10.088;2022-10-13T09:09:31;13.80;99.90
23251;DHT22;11794;49.730;10.088;2022-10-13T09:11:57;13.60;99.90
23251;DHT22;11794;49.730;10.088;2022-10-13T09:14:24;13.50;99.90
23251;DHT22;11794;49.730;10.088;2022-10-13T09:16:52;13.50;99.90
23251;DHT22;11794;49.730;10.088;2022-10-13T09:19:22;13.60;99.90
23251;DHT22;11794;49.730;10.088;2022-10-13T09:21:56;13.80;99.90
23251;DHT22;11794;49.730;10.088;2022-10-13T09:24:23;14.10;99.90
23251;DHT22;11794;49.730;10.088;2022-10-13T09:27:01;14.50;99.90
23251;DHT22;11794;49.730;10.088;2022-10-13T09:29:27;15.10;99.90
23251;DHT22;11794;49.730;10.088;2022-10-13T09:32:12;15.80;99.90
23251;DHT22;11794;49.730;10.088;2022-10-13T09:34:38;16.10;99.90
23251;DHT22;11794;49.730;10.088;2022-10-13T09:37:05;16.90;99.90
23251;DHT22;11794;49.730;10.088;2022-10-13T09:39:40;17.70;99.90
23251;DHT22;11794;49.730;10.088;2022-10-13T09:42:20;17.90;99.90
23251;DHT22;11794;49.730;10.088;2022-10-13T09:44:53;18.10;99.90
23251;DHT22;11794;49.730;10.088;2022-10-13T09:47:20;18.40;99.90
23251;DHT22;11794;49.730;10.088;2022-10-13T09:50:16;18.50;99.90
23251;DHT22;11794;49.730;10.088;2022-10-13T09:52:44;18.50;99.90
23251;DHT22;11794;49.730;10.088;2022-10-13T09:55:31;18.00;99.90
23251;DHT22;11794;49.730;10.088;2022-10-13T09:58:26;19.20;99.90
23251;DHT22;11794;49.730;10.088;2022-10-13T10:00:53;19.30;99.90
23251;DHT22;11794;49.730;10.088;2022-10-13T10:03:26;19.40;99.90
23251;DHT22;11794;49.730;10.088;2022-10-13T10:06:03;19.90;99.90
23251;DHT22;11794;49.730;10.088;2022-10-13T10:08:39;19.70;99.90
23251;DHT22;11794;49.730;10.088;2022-10-13T10:11:19;19.60;99.90
23251;DHT22;11794;49.730;10.088;2022-10-13T10:13:46;19.50;99.90
23251;DHT22;11794;49.730;10.088;2022-10-13T10:16:29;19.00;99.90
23251;DHT22;11794;49.730;10.088;2022-10-13T10:19:06;19.60;99.90
23251;DHT22;11794;49.730;10.088;2022-10-13T10:21:55;19.70;99.90
23251;DHT22;11794;49.730;10.088;2022-10-13T10:26:58;19.30;99.90
23251;DHT22;11794;49.730;10.088;2022-10-13T10:29:46;19.10;99.90
23251;DHT22;11794;49.730;10.088;2022-10-13T10:32:53;19.50;99.90
23251;DHT22;11794;49.730;10.088;2022-10-13T10:35:23;19.80;99.90
23251;DHT22;11794;49.730;10.088;2022-10-13T10:38:17;19.20;99.90
23251;DHT22;11794;49.730;10.088;2022-10-13T10:45:56;17.60;99.90
23251;DHT22;11794;49.730;10.088;2022-10-13T10:48:30;17.60;99.90
23251;DHT22;11794;49.730;10.088;2022-10-13T10:50:57;17.90;99.90
23251;DHT22;11794;49.730;10.088;2022-10-13T10:53:42;18.00;99.90
23251;DHT22;11794;49.730;10.088;2022-10-13T10:56:20;17.50;99.90
23251;DHT22;11794;49.730;10.088;2022-10-13T11:02:07;17.30;99.90
23251;DHT22;11794;49.730;10.088;2022-10-13T11:04:43;17.30;99.90
23251;DHT22;11794;49.730;10.088;2022-10-13T11:15:06;17.70;99.90
23251;DHT22;11794;49.730;10.088;2022-10-13T11:17:34;17.30;99.90
23251;DHT22;11794;49.730;10.088;2022-10-13T11:25:39;17.40;99.90
23251;DHT22;11794;49.730;10.088;2022-10-13T11:31:23;17.70;99.90
23251;DHT22;11794;49.730;10.088;2022-10-13T11:36:28;17.20;99.90
23251;DHT22;11794;49.730;10.088;2022-10-13T11:41:33;17.20;99.90
23251;DHT22;11794;49.730;10.088;2022-10-13T11:44:14;17.40;99.90
23251;DHT22;11794;49.730;10.088;2022-10-13T11:47:05;17.60;99.90
23251;DHT22;11794;49.730;10.088;2022-10-13T11:55:05;17.90;99.90
23251;DHT22;11794;49.730;10.088;2022-10-13T11:57:34;18.00;99.90
23251;DHT22;11794;49.730;10.088;2022-10-13T11:59:59;18.20;99.90
23251;DHT22;11794;49.730;10.088;2022-10-13T12:02:26;18.30;99.90
23251;DHT22;11794;49.730;10.088;2022-10-13T12:07:46;18.10;99.90
23251;DHT22;11794;49.730;10.088;2022-10-13T12:10:33;18.00;99.90
23251;DHT22;11794;49.730;10.088;2022-10-13T12:13:00;17.60;99.90
23251;DHT22;11794;49.730;10.088;2022-10-13T12:15:35;17.70;99.90
23251;DHT22;11794;49.730;10.088;2022-10-13T12:18:18;17.50;99.90
23251;DHT22;11794;49.730;10.088;2022-10-13T12:20:51;17.40;99.90
23251;DHT22;11794;49.730;10.088;2022-10-13T12:23:17;17.40;99.90
23251;DHT22;11794;49.730;10.088;2022-10-13T12:25:46;17.30;99.90
23251;DHT22;11794;49.730;10.088;2022-10-13T12:28:17;17.20;99.90
23251;DHT22;11794;49.730;10.088;2022-10-13T12:30:50;17.20;99.90
23251;DHT22;11794;49.730;10.088;2022-10-13T12:33:30;17.30;99.90
23251;DHT22;11794;49.730;10.088;2022-10-13T12:36:10;17.20;99.90
23251;DHT22;11794;49.730;10.088;2022-10-13T12:38:36;17.30;99.90
23251;DHT22;11794;49.730;10.088;2022-10-13T12:41:03;17.10;99.90
23251;DHT22;11794;49.730;10.088;2022-10-13T12:43:28;17.20;99.90
23251;DHT22;11794;49.730;10.088;2022-10-13T12:45:54;17.20;99.90
23251;DHT22;11794;49.730;10.088;2022-10-13T12:48:34;17.10;99.90
23251;DHT22;11794;49.730;10.088;2022-10-13T12:51:26;17.10;99.90
23251;DHT22;11794;49.730;10.088;2022-10-13T12:53:52;17.00;99.90
23251;DHT22;11794;49.730;10.088;2022-10-13T12:56:27;17.00;99.90
23251;DHT22;11794;49.730;10.088;2022-10-13T12:58:53;16.70;99.90
23251;DHT22;11794;49.730;10.088;2022-10-13T13:01:33;16.60;99.90
23251;DHT22;11794;49.730;10.088;2022-10-13T13:07:03;16.50;99.90
23251;DHT22;11794;49.730;10.088;2022-10-13T13:09:30;16.50;99.90
23251;DHT22;11794;49.730;10.088;2022-10-13T13:14:43;16.80;99.90
23251;DHT22;11794;49.730;10.088;2022-10-13T13:17:13;17.00;99.90
23251;DHT22;11794;49.730;10.088;2022-10-13T13:19:41;17.00;99.90
23251;DHT22;11794;49.730;10.088;2022-10-13T13:22:07;17.00;99.90
23251;DHT22;11794;49.730;10.088;2022-10-13T13:24:33;17.00;99.90
23251;DHT22;11794;49.730;10.088;2022-10-13T13:27:06;16.90;99.90
23251;DHT22;11794;49.730;10.088;2022-10-13T13:29:34;16.80;99.90
23251;DHT22;11794;49.730;10.088;2022-10-13T13:32:00;16.70;99.90
23251;DHT22;11794;49.730;10.088;2022-10-13T13:34:25;16.60;99.90
23251;DHT22;11794;49.730;10.088;2022-10-13T13:36:51;16.50;99.90
23251;DHT22;11794;49.730;10.088;2022-10-13T13:39:16;16.50;99.90
23251;DHT22;11794;49.730;10.088;2022-10-13T13:41:43;16.40;99.90
23251;DHT22;11794;49.730;10.088;2022-10-13T13:44:08;16.40;99.90
23251;DHT22;11794;49.730;10.088;2022-10-13T13:46:34;16.30;99.90
23251;DHT22;11794;49.730;10.088;2022-10-13T13:49:00;16.20;99.90
23251;DHT22;11794;49.730;10.088;2022-10-13T13:51:27;16.20;99.90
23251;DHT22;11794;49.730;10.088;2022-10-13T13:53:52;16.10;99.90
23251;DHT22;11794;49.730;10.088;2022-10-13T13:56:20;16.10;99.90
23251;DHT22;11794;49.730;10.088;2022-10-13T13:58:46;16.00;99.90
23251;DHT22;11794;49.730;10.088;2022-10-13T14:01:12;15.90;99.90
23251;DHT22;11794;49.730;10.088;2022-10-13T14:03:38;15.90;99.90
23251;DHT22;11794;49.730;10.088;2022-10-13T14:06:04;15.80;99.90
23251;DHT22;11794;49.730;10.088;2022-10-13T14:08:31;15.80;99.90
23251;DHT22;11794;49.730;10.088;2022-10-13T14:10:56;15.80;99.90
23251;DHT22;11794;49.730;10.088;2022-10-13T14:13:22;15.80;99.90
23251;DHT22;11794;49.730;10.088;2022-10-13T14:15:58;15.90;99.90
23251;DHT22;11794;49.730;10.088;2022-10-13T14:18:24;15.90;99.90
23251;DHT22;11794;49.730;10.088;2022-10-13T14:20:50;15.90;99.90
23251;DHT22;11794;49.730;10.088;2022-10-13T14:23:15;15.90;99.90
23251;DHT22;11794;49.730;10.088;2022-10-13T14:25:42;15.90;99.90
23251;DHT22;11794;49.730;10.088;2022-10-13T14:28:08;15.90;99.90
23251;DHT22;11794;49.730;10.088;2022-10-13T14:30:33;15.90;99.90
23251;DHT22;11794;49.730;10.088;2022-10-13T14:32:59;15.90;99.90
23251;DHT22;11794;49.730;10.088;2022-10-13T14:35:25;15.80;99.90
23251;DHT22;11794;49.730;10.088;2022-10-13T14:37:50;15.80;99.90
23251;DHT22;11794;49.730;10.088;2022-10-13T14:40:16;15.80;99.90
23251;DHT22;11794;49.730;10.088;2022-10-13T14:42:41;15.90;99.90
23251;DHT22;11794;49.730;10.088;2022-10-13T14:45:07;15.90;99.90
23251;DHT22;11794;49.730;10.088;2022-10-13T14:47:33;15.90;99.90
23251;DHT22;11794;49.730;10.088;2022-10-13T14:49:59;16.00;99.90
23251;DHT22;11794;49.730;10.088;2022-10-13T14:52:27;16.00;99.90
23251;DHT22;11794;49.730;10.088;2022-10-13T14:54:53;15.90;99.90
23251;DHT22;11794;49.730;10.088;2022-10-13T14:57:18;15.90;99.90
23251;DHT22;11794;49.730;10.088;2022-10-13T14:59:45;15.90;99.90
23251;DHT22;11794;49.730;10.088;2022-10-13T15:02:11;15.80;99.90
23251;DHT22;11794;49.730;10.088;2022-10-13T15:04:37;15.80;99.90
23251;DHT22;11794;49.730;10.088;2022-10-13T15:07:03;15.80;99.90
23251;DHT22;11794;49.730;10.088;2022-10-13T15:09:28;15.70;99.90
23251;DHT22;11794;49.730;10.088;2022-10-13T15:11:54;15.70;99.90
23251;DHT22;11794;49.730;10.088;2022-10-13T15:14:19;15.60;99.90
23251;DHT22;11794;49.730;10.088;2022-10-13T15:16:45;15.60;99.90
23251;DHT22;11794;49.730;10.088;2022-10-13T15:19:10;15.50;99.90
23251;DHT22;11794;49.730;10.088;2022-10-13T15:21:36;15.60;99.90
23251;DHT22;11794;49.730;10.088;2022-10-13T15:24:02;15.50;99.90
23251;DHT22;11794;49.730;10.088;2022-10-13T15:26:28;15.50;99.90
23251;DHT22;11794;49.730;10.088;2022-10-13T15:28:53;15.40;99.90
23251;DHT22;11794;49.730;10.088;2022-10-13T15:31:20;15.50;99.90
23251;DHT22;11794;49.730;10.088;2022-10-13T15:33:51;15.50;99.90
23251;DHT22;11794;49.730;10.088;2022-10-13T15:36:18;15.50;99.90
23251;DHT22;11794;49.730;10.088;2022-10-13T15:38:44;15.60;99.90
23251;DHT22;11794;49.730;10.088;2022-10-13T15:41:10;15.60;99.90
23251;DHT22;11794;49.730;10.088;2022-10-13T15:43:36;15.60;99.90
23251;DHT22;11794;49.730;10.088;2022-10-13T15:46:07;15.60;99.90
23251;DHT22;11794;49.730;10.088;2022-10-13T15:48:34;15.60;99.90
23251;DHT22;11794;49.730;10.088;2022-10-13T15:51:00;15.60;99.90
23251;DHT22;11794;49.730;10.088;2022-10-13T15:53:26;15.60;99.90
23251;DHT22;11794;49.730;10.088;2022-10-13T15:55:51;15.60;99.90
23251;DHT22;11794;49.730;10.088;2022-10-13T15:58:17;15.50;99.90
23251;DHT22;11794;49.730;10.088;2022-10-13T16:00:43;15.50;99.90
23251;DHT22;11794;49.730;10.088;2022-10-13T16:03:16;15.50;99.90
23251;DHT22;11794;49.730;10.088;2022-10-13T16:05:43;15.30;99.90
23251;DHT22;11794;49.730;10.088;2022-10-13T16:08:09;15.30;99.90
23251;DHT22;11794;49.730;10.088;2022-10-13T16:10:38;15.10;99.90
23251;DHT22;11794;49.730;10.088;2022-10-13T16:13:05;15.10;99.90
23251;DHT22;11794;49.730;10.088;2022-10-13T16:15:30;15.10;99.90
23251;DHT22;11794;49.730;10.088;2022-10-13T16:17:56;15.10;99.90
23251;DHT22;11794;49.730;10.088;2022-10-13T16:20:21;15.10;99.90
23251;DHT22;11794;49.730;10.088;2022-10-13T16:22:47;15.10;99.90
23251;DHT22;11794;49.730;10.088;2022-10-13T16:25:13;15.10;99.90
23251;DHT22;11794;49.730;10.088;2022-10-13T16:27:38;15.10;99.90
23251;DHT22;11794;49.730;10.088;2022-10-13T16:30:04;15.10;99.90
23251;DHT22;11794;49.730;10.088;2022-10-13T16:32:30;15.10;99.90
23251;DHT22;11794;49.730;10.088;2022-10-13T16:35:01;15.00;99.90
23251;DHT22;11794;49.730;10.088;2022-10-13T16:37:26;15.00;99.90